Time;durP1;ratioP1;P1;durP2;ratioP2;P2;SDS_P1;SDS_P2;PMS_P1;PMS_P2;Temp;Humidity;BMP_temperature;BMP_pressure;BME280_temperature;BME280_humidity;BME280_pressure;Samples;Min_cycle;Max_cycle;Signal;HPM_P1;HPM_P2
2021/01/05 00:01:07;;;;;;;9.50;6.72;;;;;;;1.12;95.16;101737.28;4930798;29;20183;-65
2021/01/05 00:03:33;;;;;;;10.40;7.03;;;;;;;1.08;95.92;101740.97;4929565;29;20075;-65
2021/01/05 00:05:59;;;;;;;10.80;7.07;;;;;;;1.03;95.88;101734.03;4927849;29;20106;-65
2021/01/05 00:08:26;;;;;;;11.23;7.40;;;;;;;0.98;95.64;101737.78;4933616;29;20082;-65
2021/01/05 00:13:28;;;;;;;9.40;6.85;;;;;;;0.99;96.16;101729.75;5055481;23;20492;-65
2021/01/05 00:18:24;;;;;;;13.02;8.23;;;;;;;0.94;96.13;101737.00;5014597;23;20056;-64
2021/01/05 00:20:50;;;;;;;11.98;7.80;;;;;;;0.95;96.80;101736.06;5038602;28;20049;-64
2021/01/05 00:23:16;;;;;;;12.40;7.88;;;;;;;0.94;96.34;101731.69;5041634;28;20053;-64
2021/01/05 00:25:43;;;;;;;13.60;8.43;;;;;;;0.95;96.80;101736.06;5026747;28;20491;-64
2021/01/05 00:28:10;;;;;;;13.60;8.10;;;;;;;0.91;96.85;101731.78;5038549;28;20103;-65
2021/01/05 00:30:36;;;;;;;12.77;8.73;;;;;;;0.97;96.88;101733.38;5038903;28;20049;-65
2021/01/05 00:33:02;;;;;;;15.10;7.90;;;;;;;0.99;96.66;101731.56;5040100;28;20041;-64
2021/01/05 00:35:31;;;;;;;12.75;8.00;;;;;;;1.01;96.84;101735.00;5041831;28;20655;-64
2021/01/05 00:37:57;;;;;;;17.33;8.77;;;;;;;1.00;96.67;101742.09;5026361;28;20064;-64
2021/01/05 00:40:25;;;;;;;12.55;8.25;;;;;;;1.01;97.17;101740.31;5019241;28;20087;-64
2021/01/05 00:42:52;;;;;;;12.00;7.80;;;;;;;0.97;97.05;101739.56;5021682;28;20050;-64
2021/01/05 00:45:20;;;;;;;12.93;7.45;;;;;;;1.01;96.85;101741.16;5038005;28;20041;-64
2021/01/05 00:47:46;;;;;;;13.73;8.88;;;;;;;0.97;97.12;101746.63;5039377;28;20053;-64
2021/01/05 00:50:14;;;;;;;12.57;7.90;;;;;;;0.99;97.13;101743.00;5039524;28;20423;-65
2021/01/05 00:52:40;;;;;;;13.30;8.48;;;;;;;1.05;97.12;101742.78;5040002;28;20095;-65
2021/01/05 00:55:07;;;;;;;13.90;8.48;;;;;;;1.01;97.36;101743.81;5039091;28;20076;-64
2021/01/05 00:57:33;;;;;;;13.75;8.60;;;;;;;0.98;97.32;101754.53;5040771;28;20498;-64
2021/01/05 01:00:00;;;;;;;14.88;8.45;;;;;;;0.98;97.42;101748.38;5040176;28;20073;-64
2021/01/05 01:02:26;;;;;;;12.98;8.10;;;;;;;0.99;97.71;101748.31;5040457;28;20056;-64
2021/01/05 01:04:52;;;;;;;11.98;8.13;;;;;;;1.04;97.39;101743.72;5039571;28;20053;-64
2021/01/05 01:07:18;;;;;;;11.73;8.27;;;;;;;0.98;97.37;101751.88;5040193;28;20060;-64
2021/01/05 01:09:44;;;;;;;15.10;8.65;;;;;;;0.97;97.33;101746.63;5040830;28;20072;-65
2021/01/05 01:12:17;;;;;;;15.25;8.35;;;;;;;1.00;96.93;101758.00;5040327;28;20045;-65
2021/01/05 01:14:45;;;;;;;12.63;9.10;;;;;;;1.03;97.19;101749.94;5041294;28;20063;-64
2021/01/05 01:17:13;;;;;;;11.55;7.78;;;;;;;1.03;97.07;101752.59;5040285;28;20052;-65
2021/01/05 01:19:39;;;;;;;13.50;9.23;;;;;;;1.07;97.38;101755.16;5023730;28;20482;-64
2021/01/05 01:22:05;;;;;;;12.52;8.43;;;;;;;1.04;97.41;101754.31;5018358;28;20056;-65
2021/01/05 01:24:31;;;;;;;12.95;8.43;;;;;;;1.05;97.10;101755.19;5019108;28;20050;-65
2021/01/05 01:26:57;;;;;;;14.82;8.52;;;;;;;1.09;97.42;101754.19;5021112;28;20128;-64
2021/01/05 01:29:25;;;;;;;13.10;8.43;;;;;;;1.08;97.23;101756.88;5020646;28;20490;-65
2021/01/05 01:31:52;;;;;;;13.80;8.80;;;;;;;1.13;97.08;101755.78;5019058;28;20049;-64
2021/01/05 01:34:21;;;;;;;12.77;8.15;;;;;;;1.13;96.94;101752.28;5019161;28;20669;-64
2021/01/05 01:36:58;;;;;;;15.85;8.48;;;;;;;1.09;97.03;101758.59;5021165;28;20431;-64
2021/01/05 01:39:25;;;;;;;15.00;9.68;;;;;;;1.09;97.46;101751.53;5019417;28;20061;-64
2021/01/05 01:41:52;;;;;;;14.70;8.88;;;;;;;1.09;97.13;101748.00;5020638;28;20045;-64
2021/01/05 01:44:21;;;;;;;13.85;9.43;;;;;;;1.02;97.22;101750.00;5019446;28;20057;-64
2021/01/05 01:46:48;;;;;;;;;;;;;;;1.05;97.62;101752.53;5021206;28;20057;-64
2021/01/05 01:49:14;;;;;;;12.75;7.78;;;;;;;1.09;97.32;101750.63;5019928;28;19975;-65
2021/01/05 01:51:43;;;;;;;14.10;8.63;;;;;;;1.08;97.07;101757.75;5020307;28;20061;-65
2021/01/05 01:54:46;;;;;;;12.82;8.82;;;;;;;1.15;97.05;101742.47;5018186;28;20052;-65
2021/01/05 01:57:34;;;;;;;14.27;8.68;;;;;;;1.10;97.36;101749.72;5019582;28;20045;-64
2021/01/05 02:00:12;;;;;;;14.50;9.07;;;;;;;1.08;97.48;101752.44;5020535;28;20049;-65
2021/01/05 02:02:55;;;;;;;15.80;8.70;;;;;;;1.14;97.31;101754.88;5011761;28;20124;-65
2021/01/05 02:05:25;;;;;;;13.60;8.25;;;;;;;1.12;97.38;101758.47;5018842;28;20056;-65
2021/01/05 02:08:08;;;;;;;16.05;8.77;;;;;;;1.09;97.01;101742.69;5020848;28;20054;-65
2021/01/05 02:10:47;;;;;;;13.50;8.52;;;;;;;1.16;97.31;101744.22;5019707;28;20056;-65
2021/01/05 02:13:58;;;;;;;14.23;8.70;;;;;;;1.15;97.34;101739.81;5018666;28;20064;-65
2021/01/05 02:16:33;;;;;;;13.48;8.00;;;;;;;1.14;96.94;101741.63;4990351;28;20053;-64
2021/01/05 02:19:04;;;;;;;15.27;9.13;;;;;;;1.17;96.94;101745.94;5023722;28;20079;-65
2021/01/05 02:21:36;;;;;;;12.70;8.38;;;;;;;1.16;97.05;101731.84;5018885;28;20441;-65
2021/01/05 02:24:16;;;;;;;15.00;9.13;;;;;;;1.18;97.03;101740.59;5017594;28;20064;-65
2021/01/05 02:26:50;;;;;;;14.82;8.40;;;;;;;1.28;96.90;101738.50;5012386;28;20506;-65
2021/01/05 02:29:21;;;;;;;13.73;8.80;;;;;;;1.16;96.77;101741.56;5018334;28;20042;-65
2021/01/05 02:32:01;;;;;;;13.75;8.88;;;;;;;1.19;97.35;101738.78;5018283;28;20061;-65
2021/01/05 02:34:46;;;;;;;11.38;7.75;;;;;;;1.28;96.51;101732.31;5018922;28;20120;-65
2021/01/05 02:37:23;;;;;;;13.15;8.00;;;;;;;1.21;96.63;101736.97;5019606;28;20057;-65
2021/01/05 02:40:27;;;;;;;13.13;8.38;;;;;;;1.25;96.69;101733.28;5018568;28;20513;-65
2021/01/05 02:43:42;;;;;;;12.80;7.57;;;;;;;1.31;97.00;101741.03;5016924;28;20103;-64
2021/01/05 02:46:20;;;;;;;11.93;8.13;;;;;;;1.21;96.45;101739.63;5017139;28;20053;-64
2021/01/05 02:49:20;;;;;;;10.85;7.43;;;;;;;1.26;96.81;101732.34;5019713;28;20101;-64
2021/01/05 02:52:22;;;;;;;13.05;7.88;;;;;;;1.25;96.27;101730.63;5008187;28;20483;-65
2021/01/05 02:55:13;;;;;;;11.10;7.55;;;;;;;1.21;96.58;101734.31;5028640;23;20061;-65
2021/01/05 02:57:48;;;;;;;11.95;8.35;;;;;;;1.23;97.10;101735.13;4971965;28;20057;-65
2021/01/05 03:01:00;;;;;;;13.35;8.40;;;;;;;1.26;96.91;101721.75;4980689;28;20056;-65
2021/01/05 03:03:38;;;;;;;15.82;8.10;;;;;;;1.19;96.69;101720.22;4976593;28;20051;-64
2021/01/05 03:06:29;;;;;;;14.98;9.05;;;;;;;1.18;96.65;101721.19;4977367;28;20058;-65
2021/01/05 03:09:08;;;;;;;13.27;8.02;;;;;;;1.23;96.66;101716.56;4973375;28;20577;-64
2021/01/05 03:11:48;;;;;;;13.90;7.90;;;;;;;1.20;97.15;101716.66;4980425;28;20050;-65
2021/01/05 03:14:21;;;;;;;13.38;8.75;;;;;;;1.22;96.53;101712.16;4979675;28;20050;-65
2021/01/05 03:16:55;;;;;;;14.60;8.68;;;;;;;1.19;96.49;101713.16;4979172;28;20050;-65
2021/01/05 03:19:31;;;;;;;13.73;8.80;;;;;;;1.16;97.13;101723.00;4979961;28;20050;-64
2021/01/05 03:22:02;;;;;;;13.00;9.07;;;;;;;1.18;96.49;101726.47;4980950;28;20399;-65
2021/01/05 03:24:30;;;;;;;13.02;8.20;;;;;;;1.24;97.00;101718.31;4983131;28;20053;-65
2021/01/05 03:26:57;;;;;;;15.00;9.65;;;;;;;1.24;97.03;101715.66;4983860;28;20456;-65
2021/01/05 03:29:23;;;;;;;14.38;9.13;;;;;;;1.22;96.99;101717.47;4983866;28;20054;-65
2021/01/05 03:31:54;;;;;;;13.05;8.43;;;;;;;1.19;96.68;101712.28;4982248;28;20055;-65
2021/01/05 03:34:21;;;;;;;13.15;8.40;;;;;;;1.17;97.10;101720.28;4983438;28;20042;-65
2021/01/05 03:36:47;;;;;;;12.77;8.85;;;;;;;1.14;96.50;101717.75;4982500;28;20447;-65
2021/01/05 03:39:14;;;;;;;12.93;7.75;;;;;;;1.22;96.72;101715.69;4983786;28;20054;-66
2021/01/05 03:41:41;;;;;;;12.10;8.00;;;;;;;1.14;97.00;101719.53;4982582;28;20061;-64
2021/01/05 03:44:08;;;;;;;11.88;8.13;;;;;;;1.09;97.07;101721.47;4983166;28;20050;-65
2021/01/05 03:46:34;;;;;;;11.98;7.57;;;;;;;1.14;97.09;101720.41;4982959;28;20058;-65
2021/01/05 03:49:00;;;;;;;12.10;8.25;;;;;;;1.16;97.22;101728.28;4982850;28;20130;-65
2021/01/05 03:51:26;;;;;;;13.30;9.10;;;;;;;1.09;97.27;101721.47;4981746;28;20043;-65
2021/01/05 03:53:53;;;;;;;12.57;8.52;;;;;;;1.10;96.94;101725.88;4982570;28;20538;-64
2021/01/05 03:56:18;;;;;;;12.75;7.90;;;;;;;1.14;97.44;101724.84;4971420;28;20059;-65
2021/01/05 03:58:44;;;;;;;12.73;7.93;;;;;;;1.15;96.89;101723.91;4964416;28;20083;-65
2021/01/05 04:01:11;;;;;;;13.63;7.57;;;;;;;1.18;97.04;101716.72;4964345;28;20057;-64
2021/01/05 04:03:37;;;;;;;13.82;8.95;;;;;;;1.13;97.08;101712.50;4961891;28;20051;-65
2021/01/05 04:06:04;;;;;;;14.15;8.27;;;;;;;1.12;97.40;101716.06;4961941;28;20066;-64
2021/01/05 04:08:30;;;;;;;13.23;8.23;;;;;;;1.13;97.36;101717.81;4963071;28;20059;-65
2021/01/05 04:10:56;;;;;;;12.45;8.55;;;;;;;1.12;97.65;101706.34;4965122;28;20066;-64
2021/01/05 04:15:51;;;;;;;14.00;8.23;;;;;;;1.20;97.53;101703.41;4980430;22;20401;-64
2021/01/05 04:18:17;;;;;;;14.35;8.35;;;;;;;1.18;97.23;101702.63;5038415;28;20064;-65
2021/01/05 04:20:43;;;;;;;13.77;8.48;;;;;;;1.18;97.11;101705.25;5040327;28;20152;-65
2021/01/05 04:23:10;;;;;;;12.93;8.32;;;;;;;1.16;97.60;101696.47;5040255;28;20498;-65
2021/01/05 04:25:36;;;;;;;12.70;7.60;;;;;;;1.23;96.78;101698.00;5040112;28;20045;-65
2021/01/05 04:28:02;;;;;;;12.77;8.30;;;;;;;1.19;97.81;101693.72;5039895;28;20448;-65
2021/01/05 04:30:30;;;;;;;14.88;8.77;;;;;;;1.20;97.23;101703.41;5041434;28;20045;-65
2021/01/05 04:32:58;;;;;;;13.10;8.18;;;;;;;1.17;97.69;101700.88;5040106;28;20045;-64
2021/01/05 04:35:25;;;;;;;13.50;8.43;;;;;;;1.19;97.50;101701.66;5041233;28;20064;-65
2021/01/05 04:37:52;;;;;;;13.98;8.05;;;;;;;1.19;97.63;101689.31;5040169;28;20095;-65
2021/01/05 04:40:30;;;;;;;14.43;8.80;;;;;;;1.18;97.68;101694.66;5040989;28;20045;-64
2021/01/05 04:43:08;;;;;;;14.10;7.70;;;;;;;1.22;97.22;101696.25;5039547;28;20116;-65
2021/01/05 04:45:41;;;;;;;16.30;8.43;;;;;;;1.19;97.74;101704.31;5041924;28;20139;-65
2021/01/05 04:48:18;;;;;;;15.98;8.15;;;;;;;1.23;97.76;101703.31;5040496;28;20055;-65
2021/01/05 04:50:49;;;;;;;15.63;8.68;;;;;;;1.20;97.17;101701.63;5040621;28;20110;-64
2021/01/05 04:53:21;;;;;;;14.77;8.13;;;;;;;1.20;97.48;101700.75;5038009;28;20065;-64
2021/01/05 04:55:56;;;;;;;13.82;8.35;;;;;;;1.18;97.72;101698.16;5039723;28;20464;-64
2021/01/05 04:58:29;;;;;;;15.45;8.50;;;;;;;1.20;97.77;101706.06;5039689;28;20073;-64
2021/01/05 05:00:56;;;;;;;16.10;9.32;;;;;;;1.24;97.45;101707.69;5040949;28;20536;-65
2021/01/05 05:03:39;;;;;;;16.00;8.07;;;;;;;1.27;97.56;101699.63;5038122;28;20057;-64
2021/01/05 05:06:16;;;;;;;18.50;8.75;;;;;;;1.27;97.36;101707.56;5039020;28;20053;-65
2021/01/05 05:08:56;;;;;;;17.83;8.85;;;;;;;1.27;97.74;101704.94;5041162;28;20487;-65
2021/01/05 05:11:26;;;;;;;15.65;8.35;;;;;;;1.27;97.79;101707.56;5040399;28;20061;-65
2021/01/05 05:14:00;;;;;;;17.42;9.15;;;;;;;1.28;97.35;101709.31;5039940;28;20405;-65
2021/01/05 05:16:49;;;;;;;15.75;9.00;;;;;;;1.24;97.92;101715.66;5039043;28;20997;-65
2021/01/05 05:19:31;;;;;;;19.48;9.43;;;;;;;1.33;97.85;101715.31;5040413;28;20052;-65
2021/01/05 05:22:09;;;;;;;17.92;8.93;;;;;;;1.32;97.09;101716.22;5040753;28;20041;-65
2021/01/05 05:24:45;;;;;;;16.17;8.93;;;;;;;1.30;97.95;101715.41;5030561;28;20555;-65
2021/01/05 05:27:22;;;;;;;16.20;9.38;;;;;;;1.28;98.08;101711.97;5038180;28;20053;-65
2021/01/05 05:29:53;;;;;;;16.98;9.32;;;;;;;1.28;97.61;101711.97;5039623;28;20102;-65
2021/01/05 05:32:24;;;;;;;17.55;8.70;;;;;;;1.26;98.28;101710.28;5039565;28;20402;-65
2021/01/05 05:34:59;;;;;;;15.38;8.57;;;;;;;1.34;97.64;101713.50;5038116;28;20456;-65
2021/01/05 05:37:52;;;;;;;18.67;9.02;;;;;;;1.34;97.62;101717.03;5039132;28;20075;-65
2021/01/05 05:40:31;;;;;;;16.67;9.35;;;;;;;1.36;97.69;101723.16;5038465;28;20052;-65
2021/01/05 05:43:09;;;;;;;15.73;8.63;;;;;;;1.36;97.53;101733.75;5037588;28;20140;-65
2021/01/05 05:45:39;;;;;;;17.90;9.20;;;;;;;1.33;98.11;101723.25;5039538;28;20053;-65
2021/01/05 05:48:12;;;;;;;18.00;9.50;;;;;;;1.36;97.86;101717.00;5038352;28;20493;-65
2021/01/05 05:50:47;;;;;;;17.52;9.65;;;;;;;1.32;98.01;101724.19;5040136;28;20052;-65
2021/01/05 05:53:17;;;;;;;19.73;9.40;;;;;;;1.31;97.51;101717.16;5038955;28;20044;-65
2021/01/05 05:55:49;;;;;;;18.20;9.95;;;;;;;1.40;97.94;101726.56;5039190;28;20061;-65
2021/01/05 05:58:20;;;;;;;17.00;9.57;;;;;;;1.38;97.78;101731.94;5037831;28;20556;-65
2021/01/05 06:00:49;;;;;;;18.10;9.52;;;;;;;1.44;97.65;101728.16;5039454;28;20053;-65
2021/01/05 06:03:18;;;;;;;16.92;9.23;;;;;;;1.43;97.42;101730.88;5038226;28;20152;-64
2021/01/05 06:05:44;;;;;;;16.42;9.18;;;;;;;1.46;97.93;101730.75;5039572;28;20444;-65
2021/01/05 06:08:12;;;;;;;15.10;8.02;;;;;;;1.50;96.90;101729.75;5038235;28;20052;-65
2021/01/05 06:10:39;;;;;;;15.80;9.30;;;;;;;1.53;97.38;101737.59;5039296;28;20052;-65
2021/01/05 06:13:05;;;;;;;17.55;9.45;;;;;;;1.49;97.26;101739.50;5037809;28;20049;-64
2021/01/05 06:15:33;;;;;;;16.05;9.13;;;;;;;1.46;97.05;101744.91;5046137;28;20067;-65
2021/01/05 06:18:00;;;;;;;17.63;9.15;;;;;;;1.43;97.44;101747.69;5060275;28;20398;-65
2021/01/05 06:20:26;;;;;;;17.15;9.30;;;;;;;1.47;97.14;101745.78;5059149;28;20056;-65
2021/01/05 06:22:52;;;;;;;17.85;8.80;;;;;;;1.50;97.02;101743.00;5059194;28;20057;-65
2021/01/05 06:25:18;;;;;;;16.23;9.80;;;;;;;1.49;97.80;101747.44;5057614;28;20131;-65
2021/01/05 06:27:44;;;;;;;14.70;8.18;;;;;;;1.61;96.96;101751.44;5059251;28;20037;-65
2021/01/05 06:30:11;;;;;;;17.75;9.85;;;;;;;1.57;96.92;101755.13;5058718;28;20452;-65
2021/01/05 06:32:38;;;;;;;16.77;8.88;;;;;;;1.51;96.86;101752.69;5059489;28;20075;-65
2021/01/05 06:35:05;;;;;;;15.93;8.43;;;;;;;1.62;96.79;101747.88;5051772;28;20053;-65
2021/01/05 06:37:31;;;;;;;16.13;9.05;;;;;;;1.62;96.71;101757.59;5059651;28;20052;-65
2021/01/05 06:39:57;;;;;;;14.73;7.88;;;;;;;1.54;97.42;101748.13;5061580;28;20567;-65
2021/01/05 06:42:23;;;;;;;14.98;8.27;;;;;;;1.56;96.98;101753.38;5054590;28;20053;-65
2021/01/05 06:44:49;;;;;;;16.15;8.75;;;;;;;1.55;97.07;101756.97;5051572;28;20052;-64
2021/01/05 06:47:15;;;;;;;16.08;8.45;;;;;;;1.54;97.50;101765.84;5056131;28;20111;-65
2021/01/05 06:49:42;;;;;;;16.20;8.13;;;;;;;1.55;97.52;101770.25;5054910;28;20542;-64
2021/01/05 06:52:08;;;;;;;12.32;8.00;;;;;;;1.58;97.35;101775.44;5057362;28;20048;-65
2021/01/05 06:54:34;;;;;;;16.05;7.55;;;;;;;1.57;97.24;101771.03;5057269;28;20061;-65
2021/01/05 06:57:01;;;;;;;14.10;7.55;;;;;;;1.57;97.24;101765.75;5058758;28;20493;-65
2021/01/05 06:59:28;;;;;;;12.73;7.57;;;;;;;1.50;97.66;101767.75;5063639;28;20476;-65
2021/01/05 07:01:57;;;;;;;15.48;7.65;;;;;;;1.55;97.43;101764.94;5062648;28;20064;-65
2021/01/05 07:04:24;;;;;;;14.40;8.68;;;;;;;1.59;97.40;101763.91;5061671;28;20629;-65
2021/01/05 07:06:51;;;;;;;15.38;8.07;;;;;;;1.59;97.66;101761.25;5064344;28;20060;-65
2021/01/05 07:09:19;;;;;;;14.43;7.97;;;;;;;1.58;97.48;101754.22;5061131;28;20563;-65
2021/01/05 07:11:45;;;;;;;14.13;7.70;;;;;;;1.58;97.52;101764.81;5061913;28;20052;-65
2021/01/05 07:14:12;;;;;;;15.57;8.43;;;;;;;1.58;97.41;101767.47;5062157;28;20049;-65
2021/01/05 07:16:38;;;;;;;13.82;7.95;;;;;;;1.61;96.90;101762.06;5062624;28;20111;-65
2021/01/05 07:19:05;;;;;;;14.13;7.93;;;;;;;1.57;97.42;101776.34;5062001;28;20477;-65
2021/01/05 07:21:31;;;;;;;15.05;8.48;;;;;;;1.58;97.44;101772.78;5061034;28;20497;-65
2021/01/05 07:23:58;;;;;;;15.13;8.35;;;;;;;1.63;97.41;101770.81;5060457;28;20056;-65
2021/01/05 07:26:24;;;;;;;14.27;8.43;;;;;;;1.64;97.28;101772.56;5060060;28;20059;-65
2021/01/05 07:28:50;;;;;;;14.45;8.07;;;;;;;1.67;97.06;101772.44;5062048;28;20053;-65
2021/01/05 07:31:16;;;;;;;14.40;7.47;;;;;;;1.68;97.09;101779.50;5056559;28;20564;-65
2021/01/05 07:33:41;;;;;;;14.20;7.18;;;;;;;1.66;97.46;101783.97;5059843;28;20115;-64
2021/01/05 07:36:09;;;;;;;15.35;7.95;;;;;;;1.65;96.85;101784.03;5060168;28;20386;-65
2021/01/05 07:38:35;;;;;;;13.25;7.43;;;;;;;1.74;96.81;101784.56;5062208;28;20049;-65
2021/01/05 07:41:02;;;;;;;14.88;7.78;;;;;;;1.66;97.11;101776.00;5062241;28;20560;-65
2021/01/05 07:43:28;;;;;;;13.40;7.80;;;;;;;1.60;96.90;101786.84;5058132;28;20130;-65
2021/01/05 07:45:54;;;;;;;14.50;8.25;;;;;;;1.67;97.09;101783.06;5054247;28;20055;-64
2021/01/05 07:48:20;;;;;;;15.02;7.63;;;;;;;1.63;97.02;101778.78;5057510;28;20493;-65
2021/01/05 07:50:46;;;;;;;14.75;6.93;;;;;;;1.64;97.61;101784.97;5059257;28;20073;-66
2021/01/05 07:53:12;;;;;;;16.20;7.60;;;;;;;1.60;97.73;101788.66;5059468;28;20045;-65
2021/01/05 07:55:39;;;;;;;13.63;7.22;;;;;;;1.60;97.84;101792.16;5058858;28;20049;-65
2021/01/05 07:58:06;;;;;;;15.45;8.52;;;;;;;1.63;98.20;101788.53;5057986;28;20056;-65
2021/01/05 08:00:32;;;;;;;16.70;8.43;;;;;;;1.61;97.77;101799.22;5054800;28;20072;-65
2021/01/05 08:02:58;;;;;;;15.77;8.57;;;;;;;1.60;97.78;101793.97;5050772;28;20049;-65
2021/01/05 08:05:26;;;;;;;16.67;8.77;;;;;;;1.64;97.70;101798.25;5062770;28;20049;-65
2021/01/05 08:07:52;;;;;;;19.27;8.45;;;;;;;1.71;98.26;101800.59;5061410;28;20448;-65
2021/01/05 08:10:22;;;;;;;15.88;8.70;;;;;;;1.68;98.44;101799.84;5062419;28;20056;-65
2021/01/05 08:12:48;;;;;;;18.15;8.80;;;;;;;1.62;97.82;101795.66;5061340;28;20048;-65
2021/01/05 08:15:17;;;;;;;19.30;8.75;;;;;;;1.71;98.31;101799.75;5060920;28;20067;-65
2021/01/05 08:17:43;;;;;;;19.30;9.40;;;;;;;1.72;98.64;101799.69;5061087;28;20053;-65
2021/01/05 08:20:10;;;;;;;18.35;9.55;;;;;;;1.66;98.21;101807.84;5058762;28;20390;-65
2021/01/05 08:22:36;;;;;;;19.63;8.85;;;;;;;1.71;98.22;101805.91;5060737;28;20056;-66
2021/01/05 08:25:02;;;;;;;20.67;9.77;;;;;;;1.74;98.16;101811.09;5061167;28;20387;-65
2021/01/05 08:27:28;;;;;;;17.38;9.10;;;;;;;1.72;98.32;101805.00;5059940;28;20110;-65
2021/01/05 08:29:54;;;;;;;16.52;8.77;;;;;;;1.81;98.15;101800.25;5061907;28;20127;-65
2021/01/05 08:32:23;;;;;;;19.98;9.82;;;;;;;1.80;98.95;101804.72;5059858;28;20057;-65
2021/01/05 08:34:49;;;;;;;18.92;9.00;;;;;;;1.82;98.34;101805.50;5019602;22;20053;-65
2021/01/05 08:37:15;;;;;;;17.08;9.35;;;;;;;1.84;98.67;101803.69;5040375;28;20053;-65
2021/01/05 08:39:42;;;;;;;20.02;9.50;;;;;;;1.79;99.03;101802.97;5041301;28;20049;-64
2021/01/05 08:42:08;;;;;;;23.02;9.63;;;;;;;1.85;99.15;101807.19;5041329;28;20049;-65
2021/01/05 08:44:34;;;;;;;19.98;9.35;;;;;;;1.85;99.20;101809.84;5041773;28;20545;-65
2021/01/05 08:47:01;;;;;;;19.20;10.45;;;;;;;1.83;98.42;101809.06;5040606;28;20072;-64
2021/01/05 08:49:29;;;;;;;20.35;9.93;;;;;;;1.96;98.53;101810.34;5033008;28;20482;-65
2021/01/05 08:51:55;;;;;;;21.33;10.13;;;;;;;1.97;98.85;101814.69;5038701;28;20103;-65
2021/01/05 08:54:21;;;;;;;20.05;10.18;;;;;;;1.88;98.40;101812.38;5038607;28;20091;-66
2021/01/05 08:56:52;;;;;;;22.80;10.57;;;;;;;1.85;98.93;101817.81;5040395;28;20064;-65
2021/01/05 08:59:18;;;;;;;22.48;10.95;;;;;;;1.88;98.57;101807.09;5038282;28;20065;-65
2021/01/05 09:01:44;;;;;;;20.58;11.02;;;;;;;1.84;98.46;101810.75;5029310;28;20178;-65
2021/01/05 09:04:10;;;;;;;23.73;11.05;;;;;;;1.88;98.38;101807.09;5038396;28;20048;-65
2021/01/05 09:06:37;;;;;;;22.40;11.07;;;;;;;1.85;98.51;101805.41;5027422;28;20053;-65
2021/01/05 09:09:03;;;;;;;19.75;10.82;;;;;;;1.88;99.12;101804.44;5037928;28;20048;-64
2021/01/05 09:11:29;;;;;;;23.73;11.02;;;;;;;1.95;98.96;101807.72;5041947;28;20048;-65
2021/01/05 09:13:55;;;;;;;22.05;11.63;;;;;;;1.91;98.81;101809.63;5042018;28;20039;-65
2021/01/05 09:16:23;;;;;;;20.88;11.38;;;;;;;2.01;98.77;101811.00;5039374;28;20152;-65
2021/01/05 09:18:50;;;;;;;21.75;10.10;;;;;;;2.04;99.04;101804.72;5040916;28;20053;-65
2021/01/05 09:21:16;;;;;;;22.38;10.50;;;;;;;1.96;98.33;101810.34;5039253;28;20092;-65
2021/01/05 09:23:43;;;;;;;21.85;10.70;;;;;;;1.94;98.90;101812.16;5038986;28;20041;-65
2021/01/05 09:26:17;;;;;;;20.58;11.00;;;;;;;1.91;98.73;101807.84;5036432;28;20052;-65
2021/01/05 09:28:43;;;;;;;19.10;10.60;;;;;;;1.93;98.84;101811.31;5038019;28;20049;-65
2021/01/05 09:31:09;;;;;;;20.30;10.18;;;;;;;1.98;98.96;101808.47;5040564;28;20114;-65
2021/01/05 09:33:35;;;;;;;21.25;10.10;;;;;;;1.95;98.62;101819.22;5041170;28;20482;-65
2021/01/05 09:36:01;;;;;;;21.70;10.95;;;;;;;1.95;99.10;101819.22;5026390;28;20059;-64
2021/01/05 09:38:27;;;;;;;20.25;9.55;;;;;;;1.96;98.58;101820.94;5018809;28;20058;-66
2021/01/05 09:40:54;;;;;;;19.05;10.05;;;;;;;1.99;98.78;101812.88;5008918;28;20080;-66
2021/01/05 09:43:20;;;;;;;19.35;9.93;;;;;;;1.94;98.92;101820.13;5015722;28;20057;-65
2021/01/05 09:45:46;;;;;;;15.20;9.32;;;;;;;1.93;98.88;101816.63;5017635;28;20396;-65
2021/01/05 09:48:13;;;;;;;16.67;8.40;;;;;;;1.94;99.09;101822.78;5016194;28;20411;-65
2021/01/05 09:50:41;;;;;;;16.30;8.43;;;;;;;1.97;98.98;101817.34;5010317;28;20050;-65
2021/01/05 09:53:08;;;;;;;17.13;8.48;;;;;;;1.97;98.43;101819.16;5016972;28;20078;-65
2021/01/05 09:55:34;;;;;;;13.48;7.10;;;;;;;2.13;98.55;101811.47;5017347;28;20399;-65
2021/01/05 09:58:01;;;;;;;13.88;7.57;;;;;;;2.02;98.10;101820.72;5015982;28;20049;-65
2021/01/05 10:00:28;;;;;;;15.15;8.38;;;;;;;1.99;98.67;101810.22;5017444;28;20049;-65
2021/01/05 10:02:54;;;;;;;15.27;7.95;;;;;;;1.97;99.27;101817.34;5013952;28;20053;-65
2021/01/05 10:05:20;;;;;;;14.00;7.53;;;;;;;1.98;99.10;101821.75;5010510;28;20404;-65
2021/01/05 10:07:47;;;;;;;16.63;8.48;;;;;;;2.02;99.36;101817.19;5020436;28;20376;-65
2021/01/05 10:10:16;;;;;;;15.55;7.90;;;;;;;1.92;99.21;101822.84;5009623;28;20045;-65
2021/01/05 10:12:42;;;;;;;15.32;7.82;;;;;;;2.04;99.48;101815.34;5011813;28;20054;-65
2021/01/05 10:15:10;;;;;;;19.20;8.30;;;;;;;2.04;99.00;101824.16;5021272;28;20100;-65
2021/01/05 10:17:37;;;;;;;14.95;7.60;;;;;;;2.04;99.30;101808.22;5019197;28;20042;-64
2021/01/05 10:20:05;;;;;;;16.05;7.95;;;;;;;2.06;99.13;101810.84;5018207;28;20495;-64
2021/01/05 10:22:31;;;;;;;15.88;7.65;;;;;;;2.02;98.99;101812.75;5021099;28;20430;-65
2021/01/05 10:24:57;;;;;;;15.48;7.00;;;;;;;2.06;99.52;101809.06;5018300;28;20059;-64
2021/01/05 10:27:23;;;;;;;15.43;6.95;;;;;;;2.12;98.79;101820.38;5018121;28;20068;-64
2021/01/05 10:29:50;;;;;;;16.10;7.03;;;;;;;2.05;99.08;101815.28;5017090;28;20104;-65
2021/01/05 10:32:17;;;;;;;15.52;7.30;;;;;;;2.07;99.42;101802.81;5021178;28;20081;-65
2021/01/05 10:34:42;;;;;;;14.18;7.32;;;;;;;2.15;99.41;101809.63;5023851;28;20107;-65
2021/01/05 10:37:10;;;;;;;15.35;6.63;;;;;;;2.23;99.04;101808.41;5059949;28;20065;-65
2021/01/05 10:39:36;;;;;;;13.98;7.00;;;;;;;2.14;98.78;101814.06;5062732;28;20048;-65
2021/01/05 10:42:03;;;;;;;17.23;7.45;;;;;;;2.12;98.43;101805.31;5063301;28;20078;-65
2021/01/05 10:44:29;;;;;;;14.15;6.97;;;;;;;2.13;98.91;101803.50;5061426;28;20074;-64
2021/01/05 10:46:59;;;;;;;15.65;7.28;;;;;;;2.17;98.85;101808.66;5062842;28;20053;-65
2021/01/05 10:49:26;;;;;;;15.02;6.80;;;;;;;2.21;98.60;101812.91;5060419;28;20049;-65
2021/01/05 10:51:54;;;;;;;14.88;7.03;;;;;;;2.12;98.67;101809.75;5063549;28;20169;-64
2021/01/05 10:54:21;;;;;;;13.52;6.38;;;;;;;2.15;98.30;101805.19;5062017;28;20037;-66
2021/01/05 10:56:55;;;;;;;14.02;7.13;;;;;;;2.10;98.77;101805.34;5064045;28;20049;-65
2021/01/05 10:59:21;;;;;;;13.15;6.30;;;;;;;2.16;97.96;101811.34;5060871;28;20377;-64
2021/01/05 11:01:47;;;;;;;12.27;6.40;;;;;;;2.19;98.41;101812.09;5063007;28;20048;-65
2021/01/05 11:04:13;;;;;;;11.00;5.93;;;;;;;2.20;98.58;101802.34;5060373;28;20760;-65
2021/01/05 11:06:39;;;;;;;12.20;6.45;;;;;;;2.18;97.66;101796.22;5060231;28;20468;-65
2021/01/05 11:09:06;;;;;;;13.52;6.03;;;;;;;2.15;98.31;101809.63;5052223;28;20498;-65
2021/01/05 11:11:32;;;;;;;12.88;6.75;;;;;;;2.14;98.11;101799.94;5063887;28;20052;-65
2021/01/05 11:13:58;;;;;;;10.68;6.05;;;;;;;2.19;98.07;101801.47;5061932;28;20521;-65
2021/01/05 11:16:24;;;;;;;12.88;6.55;;;;;;;2.20;98.34;101789.06;5052116;28;20048;-65
2021/01/05 11:18:50;;;;;;;12.13;6.05;;;;;;;2.21;97.50;101793.44;5062506;28;20110;-65
2021/01/05 11:21:16;;;;;;;11.85;6.30;;;;;;;2.15;97.98;101794.56;5060601;28;20463;-64
2021/01/05 11:23:43;;;;;;;10.10;5.30;;;;;;;2.16;97.16;101790.97;5062491;28;20049;-65
2021/01/05 11:26:09;;;;;;;12.18;6.25;;;;;;;2.10;97.14;101791.22;5062603;28;20056;-64
2021/01/05 11:28:36;;;;;;;10.70;5.20;;;;;;;2.18;97.42;101790.91;5063602;28;20083;-65
2021/01/05 11:31:02;;;;;;;10.68;5.68;;;;;;;2.19;97.54;101785.53;5061918;28;20512;-65
2021/01/05 11:33:28;;;;;;;10.77;5.40;;;;;;;2.28;97.14;101779.00;5060983;28;20049;-65
2021/01/05 11:35:54;;;;;;;10.65;5.40;;;;;;;2.25;96.94;101782.66;5061559;28;20061;-64
2021/01/05 11:38:20;;;;;;;8.93;5.00;;;;;;;2.16;97.03;101776.84;5062757;28;20048;-65
2021/01/05 11:40:46;;;;;;;12.07;5.88;;;;;;;2.18;97.17;101778.50;5062287;28;20052;-65
2021/01/05 11:43:12;;;;;;;9.40;5.20;;;;;;;2.18;97.09;101777.63;5061644;28;20048;-65